Paris, France
Current Conditions -  °F | °C
As of 3:30 AM on Friday 21 Nov 2014 (Local Time) from LFPB Reporting Station
NA  
Wind Chill: 44°   Ceiling: NA
Heat Index: 46°   Visibility: 5mi
Dew Point: 45°   Wind: 5mph
Humidity: 93%   Direction: 80°E
Pressure: 30.12"   Gusts: NA
Location:  48.86°N, 2.35°E
Report Text: LFPB 210230Z AUTO 08004KT 8000 ///TCU 08/07 Q1020
Loading
Personal Weather Stations






























Interactive Weather Map New forecast layout! Learn more

10-Day Weather Forecast

Advertisements
Track Severe Weather on mobile